createdAt,value
2018-06-18T05:15:15.120Z,17.6
2018-06-18T05:16:05.194Z,17.6
2018-06-18T05:16:54.996Z,17.8
2018-06-18T05:17:45.332Z,17.8
2018-06-18T05:18:35.112Z,17.7
2018-06-18T05:19:25.467Z,17.6
2018-06-18T05:20:15.240Z,17.6
2018-06-18T05:21:05.617Z,17.6
2018-06-18T05:21:55.655Z,17.6
2018-06-18T05:22:45.497Z,17.7
2018-06-18T05:23:35.237Z,17.8
2018-06-18T05:24:25.576Z,17.8
2018-06-18T05:25:15.897Z,17.8
2018-06-18T05:26:05.956Z,17.9
2018-06-18T05:26:55.794Z,17.8
2018-06-18T05:27:45.263Z,18
2018-06-18T05:28:36.296Z,18
2018-06-18T05:29:25.943Z,18
2018-06-18T05:30:15.738Z,18
2018-06-18T05:31:06.088Z,17.9
2018-06-18T05:31:56.421Z,17.9
2018-06-18T05:32:46.501Z,18.1
2018-06-18T05:33:36.525Z,18.2
2018-06-18T05:34:26.314Z,18.3
2018-06-18T05:35:16.464Z,18.2
2018-06-18T05:36:06.252Z,18.4
2018-06-18T05:36:55.947Z,18.3
2018-06-18T05:37:46.586Z,18.3
2018-06-18T05:38:36.890Z,18.3
2018-06-18T05:39:27.019Z,18.3
2018-06-18T05:41:06.809Z,18.2
2018-06-18T05:41:57.154Z,18.3
2018-06-18T05:42:47.232Z,18.3
2018-06-18T05:43:37.349Z,18.4
2018-06-18T05:44:26.818Z,18.5
2018-06-18T05:45:16.847Z,18.5
2018-06-18T05:46:07.454Z,18.6
2018-06-18T05:50:17.266Z,18.6
2018-06-18T05:51:07.876Z,18.6
2018-06-18T05:51:57.394Z,18.6
2018-06-18T05:52:47.976Z,18.6
2018-06-18T05:53:37.785Z,18.6
2018-06-18T05:54:28.121Z,18.5
2018-06-18T05:56:08.220Z,18.4
2018-06-18T05:56:57.751Z,18.4
2018-06-18T05:57:48.366Z,18.5
2018-06-18T05:58:38.235Z,18.5
2018-06-18T05:59:28.484Z,18.6
2018-06-18T06:00:18.023Z,18.6
2018-06-18T06:01:08.346Z,18.8
2018-06-18T06:01:58.438Z,18.8
2018-06-18T06:03:38.526Z,18.8
2018-06-18T06:04:28.907Z,18.6
2018-06-18T06:05:18.947Z,18.6
2018-06-18T06:06:59.051Z,18.8
2018-06-18T06:07:48.825Z,18.9
2018-06-18T06:08:39.180Z,19
2018-06-18T06:09:29.077Z,19.2
2018-06-18T06:10:19.025Z,19.3
2018-06-18T06:11:09.101Z,19.3
2018-06-18T06:11:59.467Z,19.2
2018-06-18T06:12:49.810Z,19.1
2018-06-18T06:13:39.569Z,19.1
2018-06-18T06:14:29.654Z,19.2
2018-06-18T06:15:19.683Z,19.3
2018-06-18T06:16:09.766Z,19.1
2018-06-18T06:16:59.930Z,19.1
2018-06-18T06:17:49.868Z,19.2
2018-06-18T06:18:39.397Z,19.4
2018-06-18T06:19:29.440Z,19.5
2018-06-18T06:20:20.071Z,19.6
2018-06-18T06:21:10.116Z,19.5
2018-06-18T06:21:59.952Z,19.4
2018-06-18T06:22:50.237Z,19.6
2018-06-18T06:23:40.053Z,19.6
2018-06-18T06:24:30.401Z,19.4
2018-06-18T06:25:20.451Z,19.4
2018-06-18T06:26:10.498Z,19.4
2018-06-18T06:27:00.569Z,19.6
2018-06-18T06:27:50.634Z,19.6
2018-06-18T06:28:40.700Z,19.7
2018-06-18T06:29:31.046Z,19.7
2018-06-18T06:30:20.535Z,19.8
2018-06-18T06:31:10.656Z,19.8
2018-06-18T06:32:00.965Z,19.9
2018-06-18T06:32:50.785Z,19.9
2018-06-18T06:33:41.077Z,20
2018-06-18T06:34:31.131Z,19.7
2018-06-18T06:35:20.923Z,19.5
2018-06-18T06:36:11.015Z,19.5
2018-06-18T06:37:00.787Z,19.6
2018-06-18T06:37:51.454Z,19.6
2018-06-18T06:38:41.452Z,19.5
2018-06-18T06:39:31.546Z,19.6
2018-06-18T06:40:21.576Z,19.5
2018-06-18T06:41:11.636Z,19.5
2018-06-18T06:42:01.736Z,19.4
2018-06-18T06:42:51.807Z,19.4
2018-06-18T06:43:41.569Z,19.6
2018-06-18T06:44:31.908Z,19.7
2018-06-18T06:45:21.693Z,19.6
2018-06-18T06:46:11.728Z,19.8
2018-06-18T06:47:01.807Z,19.9
2018-06-18T06:47:52.162Z,19.8
2018-06-18T06:48:42.220Z,20.1
2018-06-18T06:49:32.285Z,20
2018-06-18T06:50:22.350Z,20.1
2018-06-18T06:51:12.399Z,20.4
2018-06-18T06:52:01.913Z,20.6
2018-06-18T06:52:52.522Z,20.8
2018-06-18T06:53:42.029Z,20.8
2018-06-18T06:54:32.421Z,20.8
2018-06-18T06:55:22.746Z,21.1
2018-06-18T06:56:12.536Z,21
2018-06-18T06:57:02.851Z,21.1
2018-06-18T06:57:52.638Z,21.2
2018-06-18T06:58:42.804Z,21.3
2018-06-18T06:59:33.045Z,21.6
2018-06-18T07:00:22.548Z,21.8
2018-06-18T07:01:13.368Z,22
2018-06-18T07:02:02.977Z,22.3
2018-06-18T07:02:52.751Z,22.3
2018-06-18T07:03:43.371Z,22.5
2018-06-18T07:04:33.129Z,22.9
2018-06-18T07:05:23.515Z,22.9
2018-06-18T07:06:13.004Z,22.7
2018-06-18T07:07:03.631Z,22.2
2018-06-18T07:07:53.228Z,22.2
2018-06-18T07:08:43.465Z,22.3
2018-06-18T07:09:33.528Z,22.5
2018-06-18T07:10:23.889Z,22.9
2018-06-18T07:11:13.404Z,23.2
2018-06-18T07:12:04.014Z,23.3
2018-06-18T07:12:54.084Z,22.8
2018-06-18T07:13:43.768Z,22.9
2018-06-18T07:14:33.635Z,22.9
2018-06-18T07:15:24.243Z,22.3
2018-06-18T07:16:14.059Z,21.8
2018-06-18T07:17:04.387Z,21.9
2018-06-18T07:17:54.442Z,22.1
2018-06-18T07:18:44.500Z,22.3
2018-06-18T07:19:34.574Z,22.1
2018-06-18T07:20:24.386Z,22.1
2018-06-18T07:21:14.460Z,22.1
2018-06-18T07:22:04.777Z,22.3
2018-06-18T07:22:54.831Z,22.5
2018-06-18T07:23:44.584Z,22
2018-06-18T07:24:35.031Z,21.9
2018-06-18T07:25:25.013Z,21.6
2018-06-18T07:26:15.103Z,21.5
2018-06-18T07:27:04.971Z,22
2018-06-18T07:27:54.635Z,21.9
2018-06-18T07:28:44.708Z,21.8
2018-06-18T07:29:35.330Z,21.7
2018-06-18T07:30:25.525Z,21.8
2018-06-18T07:31:15.442Z,21.5
2018-06-18T07:32:05.606Z,21.8
2018-06-18T07:32:55.302Z,22.1
2018-06-18T07:33:45.689Z,22.5
2018-06-18T07:34:35.445Z,22.4
2018-06-18T07:35:25.842Z,22.3
2018-06-18T07:36:15.605Z,22.3
2018-06-18T07:37:04.787Z,22.2
2018-06-18T07:37:55.985Z,22.3
2018-06-18T07:38:46.064Z,22.4
2018-06-18T07:39:36.099Z,23
2018-06-18T07:40:25.396Z,23
2018-06-18T07:41:16.227Z,23
2018-06-18T07:42:06.005Z,23.3
2018-06-18T07:42:56.062Z,23.2
2018-06-18T07:43:46.402Z,22.9
2018-06-18T07:44:35.937Z,22.6
2018-06-18T07:45:26.292Z,22.7
2018-06-18T07:46:16.603Z,22.3
2018-06-18T07:47:06.131Z,22.3
2018-06-18T07:47:56.730Z,22
2018-06-18T07:48:45.952Z,22.4
2018-06-18T07:49:36.877Z,22.6
2018-06-18T07:50:26.668Z,23.1
2018-06-18T07:51:16.408Z,23.4
2018-06-18T07:52:07.082Z,23.8
2018-06-18T07:52:57.119Z,23.6
2018-06-18T07:53:47.216Z,23.5
2018-06-18T07:54:37.231Z,23.9
2018-06-18T07:55:27.021Z,23.9
2018-06-18T07:56:17.074Z,23.9
2018-06-18T07:57:06.898Z,23.9
2018-06-18T07:57:56.962Z,24.1
2018-06-18T07:58:47.280Z,24.4
2018-06-18T07:59:37.133Z,24.5
2018-06-18T08:00:27.113Z,24.3
2018-06-18T08:01:17.742Z,23.8
2018-06-18T08:02:07.825Z,24
2018-06-18T08:02:57.862Z,24.3
2018-06-18T08:03:47.660Z,24.3
2018-06-18T08:04:37.525Z,23.7
2018-06-18T08:05:28.065Z,23.4
2018-06-18T08:06:18.110Z,23.5
2018-06-18T08:07:08.180Z,23.8
2018-06-18T08:07:58.241Z,23.8
2018-06-18T08:08:48.306Z,23.9
2018-06-18T08:09:38.409Z,24.6
2018-06-18T08:10:28.195Z,24.9
2018-06-18T08:11:18.269Z,25.2
2018-06-18T08:12:08.581Z,25.3
2018-06-18T08:12:58.665Z,25.3
2018-06-18T08:13:48.710Z,25.6
2018-06-18T08:14:38.484Z,25.9
2018-06-18T08:15:28.569Z,25.9
2018-06-18T08:16:18.644Z,26.1
2018-06-18T08:17:08.958Z,26.3
2018-06-18T08:17:58.748Z,26.3
2018-06-18T08:18:49.093Z,26.4
2018-06-18T08:19:39.155Z,26.3
2018-06-18T08:20:28.468Z,25.7
2018-06-18T08:21:19.277Z,25
2018-06-18T08:22:09.336Z,24.8
2018-06-18T08:22:59.407Z,24.8
2018-06-18T08:23:49.937Z,25.2
2018-06-18T08:24:39.344Z,24.3
2018-06-18T08:25:29.045Z,23.9
2018-06-18T08:26:19.695Z,23.8
2018-06-18T08:27:09.483Z,23.6
2018-06-18T08:27:59.799Z,23.8
2018-06-18T08:28:49.856Z,23.6
2018-06-18T08:29:39.657Z,23.3
2018-06-18T08:30:30.010Z,23.4
2018-06-18T08:31:20.032Z,24.1
2018-06-18T08:32:09.559Z,24.1
2018-06-18T08:32:59.667Z,24.1
2018-06-18T08:33:50.249Z,24.6
2018-06-18T08:34:40.112Z,25
2018-06-18T08:35:30.093Z,25.4
2018-06-18T08:36:20.790Z,25.4
2018-06-18T08:37:09.957Z,25.3
2018-06-18T08:38:00.573Z,25.3
2018-06-18T08:38:50.658Z,25.7
2018-06-18T08:39:40.118Z,25.9
2018-06-18T08:40:29.988Z,26.1
2018-06-18T08:41:20.805Z,26.1
2018-06-18T08:42:10.635Z,26
2018-06-18T08:43:00.677Z,25.8
2018-06-18T08:43:51.013Z,25.9
2018-06-18T08:44:41.083Z,25.8
2018-06-18T08:45:31.123Z,25.9
2018-06-18T08:46:20.654Z,26.2
2018-06-18T08:47:11.237Z,26.3
2018-06-18T08:48:01.047Z,26.7
2018-06-18T08:48:51.398Z,26.5
2018-06-18T08:49:41.480Z,26.3
2018-06-18T08:50:31.557Z,25.1
2018-06-18T08:51:21.050Z,24.3
2018-06-18T08:52:11.488Z,24.3
2018-06-18T08:53:01.142Z,24.4
2018-06-18T08:53:51.800Z,24.4
2018-06-18T08:54:41.297Z,25.2
2018-06-18T08:55:31.740Z,25.4
2018-06-18T08:56:21.988Z,24.9
2018-06-18T08:57:12.038Z,24.7
2018-06-18T08:58:01.638Z,24.9
2018-06-18T08:58:52.146Z,25.1
2018-06-18T08:59:41.667Z,24.8
2018-06-18T09:00:32.287Z,24.3
2018-06-18T09:01:22.352Z,24.6
2018-06-18T09:02:12.400Z,25.1
2018-06-18T09:03:02.479Z,25.7
2018-06-18T09:03:52.548Z,26.1
2018-06-18T09:04:42.398Z,26.7
2018-06-18T09:05:32.692Z,27.1
2018-06-18T09:06:22.480Z,26.1
2018-06-18T09:07:12.821Z,25.3
2018-06-18T09:08:02.388Z,25.4
2018-06-18T09:08:52.716Z,26.1
2018-06-18T09:09:42.696Z,26.4
2018-06-18T09:10:32.404Z,27
2018-06-18T09:11:22.900Z,27.5
2018-06-18T09:12:12.622Z,27.7
2018-06-18T09:13:02.692Z,27.2
2018-06-18T09:13:52.844Z,27.6
2018-06-18T09:14:43.364Z,27.4
2018-06-18T09:15:32.601Z,27.1
2018-06-18T09:16:22.678Z,27.3
2018-06-18T09:17:13.276Z,27.3
2018-06-18T09:18:03.091Z,27.4
2018-06-18T09:18:52.879Z,27.8
2018-06-18T09:19:43.573Z,28.2
2018-06-18T09:20:33.576Z,28.4
2018-06-18T09:21:23.893Z,28.4
2018-06-18T09:22:13.668Z,27.6
2018-06-18T09:23:04.007Z,27.6
2018-06-18T09:23:53.817Z,28.3
2018-06-18T09:24:43.869Z,28.6
2018-06-18T09:25:34.212Z,28.8
2018-06-18T09:26:24.004Z,28.9
2018-06-18T09:27:14.348Z,29.4
2018-06-18T09:28:03.847Z,29.3
2018-06-18T09:28:54.467Z,28.6
2018-06-18T09:29:44.251Z,28.3
2018-06-18T09:30:34.576Z,27.9
2018-06-18T09:31:24.101Z,27.6
2018-06-18T09:32:15.783Z,27.3
2018-06-18T09:33:04.793Z,26.3
2018-06-18T09:33:54.552Z,25.1
2018-06-18T09:34:44.918Z,25.3
2018-06-18T09:35:34.742Z,25.4
2018-06-18T09:36:24.830Z,25.1
2018-06-18T09:37:15.181Z,24.8
2018-06-18T09:38:05.215Z,24.8
2018-06-18T09:38:55.293Z,25.3
2018-06-18T09:39:45.023Z,26
2018-06-18T09:40:34.832Z,25.6
2018-06-18T09:41:25.427Z,25.7
2018-06-18T09:42:15.216Z,25.9
2018-06-18T09:43:05.282Z,25.8
2018-06-18T09:43:55.646Z,26
2018-06-18T09:44:45.202Z,25.9
2018-06-18T09:45:35.772Z,25.5
2018-06-18T09:46:25.330Z,24.9
2018-06-18T09:47:15.879Z,24.6
2018-06-18T09:48:06.195Z,24.1
2018-06-18T09:48:55.993Z,24.1
2018-06-18T09:49:45.593Z,24.1
2018-06-18T09:50:36.183Z,24
2018-06-18T09:51:26.196Z,23.9
2018-06-18T09:52:16.273Z,24
2018-06-18T09:53:06.049Z,23.9
2018-06-18T09:53:56.138Z,23.8
2018-06-18T09:54:46.174Z,23.8
2018-06-18T09:55:36.583Z,24
2018-06-18T09:56:26.599Z,24.1
2018-06-18T09:57:16.354Z,24.3
2018-06-18T09:58:05.872Z,24.3
2018-06-18T09:59:46.821Z,24
2018-06-18T10:00:36.913Z,24
2018-06-18T10:01:26.375Z,23.9
2018-06-18T10:02:17.217Z,24
2018-06-18T10:03:07.137Z,23.8
2018-06-18T10:03:57.163Z,23.6
2018-06-18T10:04:46.964Z,23.1
2018-06-18T10:05:37.005Z,22.4
2018-06-18T10:06:27.325Z,21.8
2018-06-18T10:07:16.873Z,21.3
2018-06-18T10:08:06.969Z,21.1
2018-06-18T10:08:57.553Z,20.9
2018-06-18T10:09:47.589Z,20.9
2018-06-18T10:10:37.318Z,21.1
2018-06-18T10:11:27.734Z,21.2
2018-06-18T10:12:17.790Z,21.2
2018-06-18T10:13:07.904Z,21.3
2018-06-18T10:13:57.993Z,21.2
2018-06-18T10:14:48.011Z,21.3
2018-06-18T10:15:38.038Z,21.4
2018-06-18T10:16:28.150Z,21.3
2018-06-18T10:17:18.168Z,21.3
2018-06-18T10:18:07.679Z,21.4
2018-06-18T10:18:58.304Z,21.5
2018-06-18T10:19:48.132Z,21.5
2018-06-18T10:20:38.446Z,21.6
2018-06-18T10:21:28.215Z,21.6
2018-06-18T10:22:18.577Z,21.5
2018-06-18T10:23:08.634Z,21.4
2018-06-18T10:23:58.744Z,21.2
2018-06-18T10:25:38.575Z,21.1
2018-06-18T10:26:28.334Z,21
2018-06-18T10:28:08.433Z,20.9
2018-06-18T10:28:58.812Z,20.9
2018-06-18T10:29:48.581Z,20.9
2018-06-18T10:30:38.916Z,20.9
2018-06-18T10:31:29.246Z,20.9
2018-06-18T10:32:19.061Z,20.6
2018-06-18T10:33:09.119Z,20.6
2018-06-18T10:33:59.233Z,20.8
2018-06-18T10:34:49.244Z,21.1
2018-06-18T10:35:39.616Z,21.2
2018-06-18T10:36:29.388Z,21.4
2018-06-18T10:37:19.441Z,21.4
2018-06-18T10:38:09.790Z,21.4
2018-06-18T10:38:59.851Z,21.6
2018-06-18T10:39:49.888Z,21.7
2018-06-18T10:40:39.970Z,21.8
2018-06-18T10:41:30.392Z,21.8
2018-06-18T10:42:20.109Z,21.9
2018-06-18T10:43:09.606Z,22.1
2018-06-18T10:43:59.945Z,22.3
2018-06-18T10:44:50.277Z,22.2
2018-06-18T10:45:40.386Z,22.1
2018-06-18T10:46:30.399Z,22.3
2018-06-18T10:47:20.469Z,22.4
2018-06-18T10:48:10.254Z,22.5
2018-06-18T10:49:00.240Z,22.4
2018-06-18T10:49:50.661Z,22.8
2018-06-18T10:50:40.468Z,22.8
2018-06-18T10:51:30.788Z,22.8
2018-06-18T10:52:20.864Z,23.1
2018-06-18T10:53:10.078Z,23.4
2018-06-18T10:54:01.007Z,23.4
2018-06-18T10:54:51.053Z,23.5
2018-06-18T10:55:41.112Z,23.5
2018-06-18T10:56:31.204Z,23.9
2018-06-18T10:57:20.690Z,24.1
2018-06-18T10:58:11.050Z,24.3
2018-06-18T10:59:01.090Z,24.4
2018-06-18T10:59:51.462Z,24.3
2018-06-18T11:00:41.235Z,24.5
2018-06-18T11:01:31.311Z,24.6
2018-06-18T11:02:21.337Z,24
2018-06-18T11:03:11.128Z,24
2018-06-18T11:04:01.274Z,24.3
2018-06-18T11:04:51.269Z,24.6
2018-06-18T11:05:41.601Z,25.1
2018-06-18T11:06:31.746Z,25.9
2018-06-18T11:07:22.016Z,26.3
2018-06-18T11:08:11.770Z,26.3
2018-06-18T11:09:02.125Z,25.8
2018-06-18T11:09:51.452Z,25.6
2018-06-18T11:10:41.997Z,25.7
2018-06-18T11:11:32.323Z,25.8
2018-06-18T11:12:22.398Z,25.8
2018-06-18T11:13:12.461Z,26.1
2018-06-18T11:14:02.524Z,26.4
2018-06-18T11:14:52.277Z,26.6
2018-06-18T11:15:41.817Z,26.9
2018-06-18T11:16:35.354Z,26.9
2018-06-18T11:17:26.322Z,26.7
2018-06-18T11:18:12.279Z,26.7
2018-06-18T11:19:02.903Z,26.6
2018-06-18T11:19:52.400Z,27
2018-06-18T11:20:43.033Z,27.4
2018-06-18T11:21:32.817Z,27.6
2018-06-18T11:22:22.903Z,27.5
2018-06-18T11:23:12.960Z,27.6
2018-06-18T11:24:03.028Z,27.8
2018-06-18T11:24:53.063Z,27.5
2018-06-18T11:26:34.412Z,27.7
2018-06-18T11:27:23.988Z,27
2018-06-18T11:28:14.023Z,26.8
2018-06-18T11:29:03.671Z,27.2
2018-06-18T11:29:53.524Z,27.6
2018-06-18T11:31:33.845Z,27.6
2018-06-18T11:32:24.172Z,27.9
2018-06-18T11:33:13.973Z,28.3
2018-06-18T11:34:04.058Z,28.5
2018-06-18T11:34:54.171Z,28.1
2018-06-18T11:35:44.588Z,28.5
2018-06-18T11:36:33.964Z,28.2
2018-06-18T11:37:24.322Z,28.2
2018-06-18T11:38:14.088Z,28.2
2018-06-18T11:39:03.871Z,27.8
2018-06-18T11:39:54.506Z,27.8
2018-06-18T11:40:44.731Z,28.1
2018-06-18T11:41:34.640Z,28.4
2018-06-18T11:42:25.009Z,28.9
2018-06-18T11:43:14.806Z,29.3
2018-06-18T11:44:04.802Z,29.6
2018-06-18T11:44:54.647Z,29.8
2018-06-18T11:45:45.101Z,29.9
2018-06-18T11:46:35.065Z,29.6
2018-06-18T11:47:25.069Z,29.4
2018-06-18T11:48:15.866Z,29.4
2018-06-18T11:49:04.946Z,29
2018-06-18T11:49:54.785Z,29.3
2018-06-18T11:50:45.317Z,28.9
2018-06-18T11:51:35.120Z,29.4
2018-06-18T11:52:25.444Z,29.3
2018-06-18T11:53:15.251Z,28.8
2018-06-18T11:54:05.608Z,28.6
2018-06-18T11:54:55.716Z,29.2
2018-06-18T11:55:45.733Z,29.6
2018-06-18T11:56:35.218Z,29.8
2018-06-18T11:57:25.855Z,29.6
2018-06-18T11:58:16.000Z,29.5
2018-06-18T11:59:05.965Z,29.6
2018-06-18T11:59:55.480Z,29.6
2018-06-18T12:00:46.079Z,29.3
2018-06-18T12:01:36.258Z,28.9
2018-06-18T12:02:26.204Z,28.4
2018-06-18T12:03:15.538Z,28.5
2018-06-18T12:04:06.349Z,29.2
2018-06-18T12:04:56.129Z,29.6
2018-06-18T12:05:45.919Z,29.8
2018-06-18T12:06:35.987Z,29.9
2018-06-18T12:07:26.477Z,30
2018-06-18T12:08:16.651Z,30.2
2018-06-18T12:09:06.461Z,30.1
2018-06-18T12:09:57.436Z,30.4
2018-06-18T12:10:46.855Z,30.6
2018-06-18T12:11:36.677Z,30.6
2018-06-18T12:12:26.997Z,30.7
2018-06-18T12:13:17.049Z,30.7
2018-06-18T12:14:07.146Z,30.9
2018-06-18T12:14:57.196Z,30.8
2018-06-18T12:15:47.251Z,30.7
2018-06-18T12:16:36.302Z,30.8
2018-06-18T12:17:27.103Z,30.6
2018-06-18T12:18:17.182Z,30.4
2018-06-18T12:19:07.502Z,30.5
2018-06-18T12:19:57.303Z,30.6
2018-06-18T12:20:47.625Z,30.9
2018-06-18T12:21:37.173Z,31
2018-06-18T12:22:27.217Z,30.8
2018-06-18T12:23:17.823Z,30.3
2018-06-18T12:24:07.625Z,30.1
2018-06-18T12:24:57.714Z,30.1
2018-06-18T12:25:47.817Z,30.4
2018-06-18T12:26:37.551Z,30.8
2018-06-18T12:27:28.151Z,30.4
2018-06-18T12:28:17.832Z,30.1
2018-06-18T12:29:08.281Z,30.2
2018-06-18T12:29:58.069Z,30.1
2018-06-18T12:30:48.104Z,30.3
2018-06-18T12:31:38.217Z,30.5
2018-06-18T12:32:28.235Z,30.5
2018-06-18T12:33:18.571Z,30.4
2018-06-18T12:34:08.647Z,30.4
2018-06-18T12:34:58.701Z,30.3
2018-06-18T12:35:48.573Z,30.3
2018-06-18T12:36:38.582Z,30.5
2018-06-18T12:37:28.621Z,30.5
2018-06-18T12:38:18.961Z,30.5
2018-06-18T12:39:08.577Z,30.3
2018-06-18T12:39:59.091Z,30.2
2018-06-18T12:40:49.160Z,30.9
2018-06-18T12:41:38.386Z,30.8
2018-06-18T12:42:29.015Z,31.1
2018-06-18T12:43:19.342Z,30.9
2018-06-18T12:44:09.412Z,30.9
2018-06-18T12:44:59.192Z,30.8
2018-06-18T12:45:49.675Z,30.2
2018-06-18T12:46:39.724Z,29.4
2018-06-18T12:47:29.492Z,28.9
2018-06-18T12:48:19.850Z,28.8
2018-06-18T12:49:09.798Z,28.8
2018-06-18T12:49:59.851Z,28.6
2018-06-18T12:50:49.921Z,28.8
2018-06-18T12:51:39.988Z,29
2018-06-18T12:52:30.043Z,28.8
2018-06-18T12:53:20.735Z,28.5
2018-06-18T12:54:10.187Z,28.1
2018-06-18T12:55:00.254Z,28.1
2018-06-18T12:55:50.309Z,27.9
2018-06-18T12:56:40.384Z,28.1
2018-06-18T12:57:30.437Z,28.1
2018-06-18T12:58:19.985Z,28
2018-06-18T12:59:09.763Z,27.9
2018-06-18T13:00:00.174Z,27.9
2018-06-18T13:00:50.710Z,27.9
2018-06-18T13:01:40.487Z,27.7
2018-06-18T13:02:30.295Z,27.8
2018-06-18T13:03:21.198Z,27.6
2018-06-18T13:04:10.970Z,27.8
2018-06-18T13:05:00.755Z,27.6
2018-06-18T13:05:51.095Z,27.3
2018-06-18T13:06:41.162Z,27.1
2018-06-18T13:07:31.233Z,26.5
2018-06-18T13:08:20.554Z,26.4
2018-06-18T13:09:11.095Z,26.5
2018-06-18T13:10:01.463Z,26.4
2018-06-18T13:10:51.202Z,26.6
2018-06-18T13:11:41.572Z,26.4
2018-06-18T13:12:31.051Z,26.2
2018-06-18T13:13:21.705Z,26.3
2018-06-18T13:14:11.764Z,26.1
2018-06-18T13:15:01.240Z,26.1
2018-06-18T13:15:51.869Z,26.1
2018-06-18T13:16:41.675Z,26.1
2018-06-18T13:17:31.781Z,26.3
2018-06-18T13:18:36.710Z,26.3
2018-06-18T13:19:11.363Z,26.3
2018-06-18T13:20:01.941Z,26.2
2018-06-18T13:20:52.240Z,26.2
2018-06-18T13:21:42.420Z,26.3
2018-06-18T13:22:32.375Z,26.2
2018-06-18T13:23:22.471Z,26.2
2018-06-18T13:24:12.536Z,26.2
2018-06-18T13:25:02.609Z,26.1
2018-06-18T13:25:52.640Z,26.1
2018-06-18T13:26:42.150Z,26.2
2018-06-18T13:27:32.424Z,26.1
2018-06-18T13:28:22.992Z,25.8
2018-06-18T13:29:12.883Z,25.4
2018-06-18T13:30:02.153Z,25.6
2018-06-18T13:30:53.030Z,25.8
2018-06-18T13:31:43.102Z,25.9
2018-06-18T13:32:32.601Z,25.9
2018-06-18T13:33:22.975Z,25.9
2018-06-18T13:34:12.448Z,25.9
2018-06-18T13:35:03.131Z,25.9
2018-06-18T13:35:53.443Z,26.1
2018-06-18T13:36:43.246Z,26
2018-06-18T13:37:33.268Z,25.9
2018-06-18T13:38:23.314Z,25.9
2018-06-18T13:39:13.665Z,25.8
2018-06-18T13:40:03.791Z,25.8
2018-06-18T13:40:53.796Z,25.9
2018-06-18T13:41:43.918Z,25.6
2018-06-18T13:42:33.944Z,25.4
2018-06-18T13:43:24.000Z,25.7
2018-06-18T13:44:14.104Z,25.4
2018-06-18T13:45:03.841Z,24.9
2018-06-18T13:45:53.905Z,24.9
2018-06-18T13:46:44.265Z,25.2
2018-06-18T13:47:34.307Z,25.6
2018-06-18T13:48:23.527Z,25.7
2018-06-18T13:49:14.158Z,25.8
2018-06-18T13:50:04.223Z,25.9
2018-06-18T13:50:54.299Z,25.9
2018-06-18T13:51:44.075Z,25.9
2018-06-18T13:52:34.542Z,25.9
2018-06-18T13:53:24.499Z,26
2018-06-18T13:54:14.002Z,26.1
2018-06-18T13:55:04.902Z,26
2018-06-18T13:55:54.689Z,26.2
2018-06-18T13:56:44.736Z,26.1
2018-06-18T13:57:34.816Z,26
2018-06-18T13:58:24.601Z,26.1
2018-06-18T13:59:15.209Z,26.1
2018-06-18T14:00:04.723Z,26.1
2018-06-18T14:00:55.350Z,26.1
2018-06-18T14:01:45.394Z,26.1
2018-06-18T14:02:35.187Z,26.3
2018-06-18T14:03:25.021Z,26.3
2018-06-18T14:04:15.334Z,26.3
2018-06-18T14:05:05.243Z,26.1
2018-06-18T14:05:55.261Z,26.2
2018-06-18T14:06:45.774Z,26.1
2018-06-18T14:07:35.859Z,26.1
2018-06-18T14:08:25.708Z,26.2
2018-06-18T14:09:15.754Z,26.4
2018-06-18T14:10:05.744Z,26.6
2018-06-18T14:10:55.836Z,26.6
2018-06-18T14:11:45.625Z,26.3
2018-06-18T14:12:36.219Z,25.9
2018-06-18T14:13:26.032Z,25.9
2018-06-18T14:14:16.446Z,25.9
2018-06-18T14:15:06.167Z,25.9
2018-06-18T14:15:56.274Z,25.9
2018-06-18T14:16:46.572Z,25.9
2018-06-18T14:17:36.345Z,25.9
2018-06-18T14:18:26.683Z,26
2018-06-18T14:19:16.759Z,25.9
2018-06-18T14:20:06.590Z,25.9
2018-06-18T14:20:56.645Z,26
2018-06-18T14:21:46.669Z,26.1
2018-06-18T14:22:36.996Z,26
2018-06-18T14:23:26.805Z,25.8
2018-06-18T14:24:17.158Z,25.9
2018-06-18T14:25:07.204Z,25.8
2018-06-18T14:25:56.690Z,25.6
2018-06-18T14:26:47.319Z,25.5
2018-06-18T14:27:37.369Z,25.4
2018-06-18T14:28:27.524Z,25.2
2018-06-18T14:29:17.534Z,24.9
2018-06-18T14:30:07.298Z,24.6
2018-06-18T14:30:57.362Z,24.5
2018-06-18T14:31:47.734Z,24.5
2018-06-18T14:32:37.117Z,24.3
2018-06-18T14:33:27.830Z,24
2018-06-18T14:34:17.892Z,23.9
2018-06-18T14:35:07.714Z,23.7
2018-06-18T14:35:57.491Z,23.5
2018-06-18T14:36:48.128Z,23.6
2018-06-18T14:37:38.157Z,23.7
2018-06-18T14:38:28.250Z,23.8
2018-06-18T14:39:18.038Z,23.8
2018-06-18T14:40:08.512Z,23.6
2018-06-18T14:40:58.413Z,23.6
2018-06-18T14:41:48.509Z,23.6
2018-06-18T14:42:38.960Z,23.6
2018-06-18T14:43:28.330Z,23.4
2018-06-18T14:44:18.677Z,23.7
2018-06-18T14:45:08.866Z,23.9
2018-06-18T14:45:59.713Z,24.1
2018-06-18T14:46:48.579Z,24.1
2018-06-18T14:47:39.258Z,24.1
2018-06-18T14:48:30.473Z,24
2018-06-18T14:49:18.803Z,23.8
2018-06-18T14:50:09.116Z,23.8
2018-06-18T14:50:59.207Z,24.1
2018-06-18T14:51:48.977Z,24.5
2018-06-18T14:52:39.688Z,24.3
2018-06-18T14:53:29.372Z,24.1
2018-06-18T14:54:19.765Z,24.1
2018-06-18T14:55:09.511Z,24.6
2018-06-18T14:55:59.474Z,24.8
2018-06-18T14:56:50.062Z,25.2
2018-06-18T14:57:39.679Z,25.5
2018-06-18T14:58:29.490Z,25.3
2018-06-18T14:59:19.477Z,25.4
2018-06-18T15:00:09.949Z,25.6
2018-06-18T15:00:59.676Z,25.6
2018-06-18T15:01:50.071Z,25.8
2018-06-18T15:02:40.102Z,25.9
2018-06-18T15:03:30.141Z,25.8
2018-06-18T15:04:20.307Z,25.4
2018-06-18T15:05:10.023Z,25
2018-06-18T15:06:00.115Z,24.3
2018-06-18T15:06:49.860Z,23.6
2018-06-18T15:07:40.198Z,23.4
2018-06-18T15:08:30.913Z,23.3
2018-06-18T15:09:21.431Z,23.3
2018-06-18T15:10:10.599Z,23.2
2018-06-18T15:11:00.443Z,23.1
2018-06-18T15:11:50.807Z,22.6
2018-06-18T15:12:41.195Z,22.3
2018-06-18T15:13:30.653Z,22.3
2018-06-18T15:14:20.705Z,22.3
2018-06-18T15:15:11.070Z,22.2
2018-06-18T15:16:01.604Z,22.1
2018-06-18T15:16:50.915Z,22.3
2018-06-18T15:17:40.972Z,22.2
2018-06-18T15:18:30.800Z,22.3
2018-06-18T15:19:21.668Z,22.3
2018-06-18T15:20:11.168Z,22.3
2018-06-18T15:21:01.452Z,22.3
2018-06-18T15:21:51.297Z,22.3
2018-06-18T15:22:41.640Z,22.4
2018-06-18T15:23:31.679Z,22.4
2018-06-18T15:24:21.743Z,22.3
2018-06-18T15:25:12.200Z,22.3
2018-06-18T15:26:01.895Z,22
2018-06-18T15:26:53.084Z,21.6
2018-06-18T15:27:42.004Z,21.3
2018-06-18T15:29:22.132Z,21.2
2018-06-18T15:30:12.208Z,20.8
2018-06-18T15:31:02.299Z,20.5
2018-06-18T15:31:51.790Z,20.4
2018-06-18T15:32:42.408Z,20.1
2018-06-18T15:33:32.440Z,20
2018-06-18T15:34:22.521Z,19.9
2018-06-18T15:35:12.321Z,19.8
2018-06-18T15:36:02.676Z,19.6
2018-06-18T15:36:52.731Z,19.4
2018-06-18T15:37:42.301Z,19.1
2018-06-18T15:38:33.549Z,18.8
2018-06-18T15:39:22.623Z,18.4
2018-06-18T15:40:12.964Z,18.1
2018-06-18T15:41:02.773Z,17.8
2018-06-18T15:41:53.151Z,17.4
2018-06-18T15:42:43.178Z,17.4
2018-06-18T15:43:32.935Z,17.3
2018-06-18T15:44:23.882Z,17.3
2018-06-18T15:45:13.067Z,17.3
2018-06-18T15:46:02.849Z,17.1
2018-06-18T15:46:53.461Z,17.1
2018-06-18T15:47:43.535Z,17.1
2018-06-18T15:48:33.365Z,17.3
2018-06-18T15:49:23.643Z,17.3
2018-06-18T15:50:13.439Z,17.3
2018-06-18T15:51:03.778Z,17.3
2018-06-18T15:51:53.833Z,17.3
2018-06-18T15:52:43.620Z,17.3
2018-06-18T15:53:33.706Z,17.4
2018-06-18T15:54:24.032Z,17.4
2018-06-18T15:55:14.089Z,17.6
2018-06-18T15:56:03.901Z,17.6
2018-06-18T15:56:54.563Z,17.8
2018-06-18T15:57:44.029Z,17.8
2018-06-18T15:58:34.108Z,17.8
2018-06-18T15:59:23.860Z,17.8
2018-06-18T16:00:14.483Z,17.7
2018-06-18T16:01:04.264Z,17.6
2018-06-18T16:01:54.613Z,17.6
2018-06-18T16:02:44.664Z,17.6
2018-06-18T16:03:34.730Z,17.6
2018-06-18T16:04:24.820Z,17.6
2018-06-18T16:05:14.347Z,17.8
2018-06-18T16:06:04.637Z,17.8
2018-06-18T16:06:54.977Z,17.8
2018-06-18T16:07:44.504Z,17.7
2018-06-18T16:08:35.097Z,17.6
2018-06-18T16:09:24.891Z,17.7
2018-06-18T16:10:14.951Z,17.8
2018-06-18T16:11:05.328Z,18
2018-06-18T16:11:55.094Z,17.9
2018-06-18T16:12:45.132Z,17.9
2018-06-18T16:13:35.230Z,17.8
2018-06-18T16:14:25.366Z,17.8
2018-06-18T16:15:15.342Z,17.8
2018-06-18T16:16:05.114Z,17.8
2018-06-18T16:16:55.175Z,17.8
2018-06-18T16:17:46.078Z,17.8
2018-06-18T16:18:35.856Z,17.8
2018-06-18T16:19:25.651Z,17.8
2018-06-18T16:20:15.451Z,17.7
2018-06-18T16:21:06.063Z,17.6
2018-06-18T16:21:56.118Z,17.6
2018-06-18T16:22:46.183Z,17.6
2018-06-18T16:23:36.230Z,17.6
2018-06-18T16:24:26.029Z,17.5
2018-06-18T16:25:16.116Z,17.4
2018-06-18T16:26:56.208Z,17.3
2018-06-18T16:27:45.981Z,17.2
2018-06-18T16:28:36.076Z,17.1
2018-06-18T16:29:26.125Z,17.1
2018-06-18T16:30:16.748Z,17.1
2018-06-18T16:31:06.532Z,17.1
2018-06-18T16:31:56.847Z,17.1
2018-06-18T16:32:46.919Z,17.1
2018-06-18T16:33:36.156Z,17.1
2018-06-18T16:34:27.063Z,17.1
2018-06-18T16:35:17.107Z,17.1
2018-06-18T16:36:07.181Z,17.1